Time;durP1;ratioP1;P1;durP2;ratioP2;P2;SDS_P1;SDS_P2;PMS_P1;PMS_P2;Temp;Humidity;BMP_temperature;BMP_pressure;BME280_temperature;BME280_humidity;BME280_pressure;Samples;Min_cycle;Max_cycle;Signal;HPM_P1;HPM_P2
2023/02/18 00:01:10;;;;;;;9.02;3.50;;;;;;;10.19;100.00;96335.06;5023718;28;20113;-74
2023/02/18 00:03:35;;;;;;;8.77;3.40;;;;;;;10.22;100.00;96350.38;5003374;28;20050;-74
2023/02/18 00:06:13;;;;;;;7.20;3.22;;;;;;;10.16;100.00;96345.31;5009610;28;20088;-74
2023/02/18 00:08:39;;;;;;;7.35;3.75;;;;;;;10.12;100.00;96339.72;5007388;28;20041;-74
2023/02/18 00:11:06;;;;;;;6.82;3.15;;;;;;;10.08;100.00;96346.50;5005299;28;20105;-74
2023/02/18 00:13:31;;;;;;;9.40;3.80;;;;;;;10.06;100.00;96345.97;5004820;28;20073;-74
2023/02/18 00:16:06;;;;;;;18.90;3.67;;;;;;;10.04;100.00;96338.34;5009535;28;20042;-74
2023/02/18 00:18:32;;;;;;;11.63;3.30;;;;;;;9.99;100.00;96334.84;5007756;28;20042;-74
2023/02/18 00:20:57;;;;;;;10.80;3.45;;;;;;;10.02;100.00;96329.09;5007637;28;20444;-74
2023/02/18 00:23:24;;;;;;;7.75;3.47;;;;;;;10.00;100.00;96323.31;5009510;28;20073;-74
2023/02/18 00:25:57;;;;;;;7.57;3.13;;;;;;;10.06;100.00;96324.94;5011944;28;20060;-74
2023/02/18 00:28:23;;;;;;;7.80;2.88;;;;;;;10.01;100.00;96315.16;5012174;28;20501;-74
2023/02/18 00:30:48;;;;;;;5.93;2.97;;;;;;;9.92;100.00;96315.84;5010895;28;20041;-74
2023/02/18 00:33:14;;;;;;;8.07;2.97;;;;;;;9.98;100.00;96325.38;5007511;28;20038;-74
2023/02/18 00:35:39;;;;;;;5.93;3.28;;;;;;;10.07;100.00;96316.03;5012076;28;20104;-74
2023/02/18 00:38:05;;;;;;;9.00;2.92;;;;;;;9.88;100.00;96324.22;5012034;28;20041;-74
2023/02/18 00:40:30;;;;;;;5.35;2.63;;;;;;;9.83;100.00;96324.13;5003751;28;20065;-74
2023/02/18 00:42:56;;;;;;;9.20;2.92;;;;;;;9.82;100.00;96325.16;5010331;28;20782;-72
2023/02/18 00:45:21;;;;;;;6.15;2.65;;;;;;;9.79;100.00;96319.63;5011978;28;20042;-74
2023/02/18 00:47:47;;;;;;;6.28;2.90;;;;;;;9.69;100.00;96328.16;5013181;28;20053;-74
2023/02/18 00:50:12;;;;;;;7.97;3.53;;;;;;;9.69;100.00;96317.66;5009411;28;20050;-74
2023/02/18 00:52:38;;;;;;;6.47;3.10;;;;;;;9.69;100.00;96315.03;5011203;28;20042;-74
2023/02/18 00:55:03;;;;;;;5.45;2.70;;;;;;;9.65;100.00;96317.31;5010798;28;20092;-74
2023/02/18 00:57:29;;;;;;;7.28;2.60;;;;;;;9.70;100.00;96317.41;5007793;28;20042;-74
2023/02/18 00:59:54;;;;;;;5.47;2.60;;;;;;;9.68;100.00;96321.31;5009649;28;20029;-74
2023/02/18 01:02:20;;;;;;;7.10;3.03;;;;;;;9.69;100.00;96325.53;5008203;28;20042;-74
2023/02/18 01:04:45;;;;;;;15.43;3.05;;;;;;;9.79;100.00;96320.41;5009482;28;20033;-73
2023/02/18 01:07:11;;;;;;;8.77;3.20;;;;;;;9.74;100.00;96317.72;5012648;28;20418;-73
2023/02/18 01:09:37;;;;;;;6.55;2.70;;;;;;;9.84;100.00;96314.41;5011475;28;20050;-74
2023/02/18 01:12:03;;;;;;;4.85;2.85;;;;;;;9.87;100.00;96312.09;5009381;28;20045;-74
2023/02/18 01:14:28;;;;;;;15.27;3.42;;;;;;;9.84;100.00;96311.78;5006919;28;20198;-74
2023/02/18 01:16:54;;;;;;;8.60;3.25;;;;;;;9.87;100.00;96314.72;5012426;28;20046;-74
2023/02/18 01:19:19;;;;;;;6.93;3.45;;;;;;;9.89;100.00;96310.00;5012549;28;20494;-74
2023/02/18 01:21:45;;;;;;;7.60;3.03;;;;;;;9.90;100.00;96310.81;5007490;28;20077;-74
2023/02/18 01:24:10;;;;;;;8.75;3.00;;;;;;;9.91;100.00;96311.59;5012283;28;20100;-74
2023/02/18 01:26:36;;;;;;;8.07;3.10;;;;;;;9.84;100.00;96302.06;5011112;28;20077;-74
2023/02/18 01:29:01;;;;;;;6.32;3.25;;;;;;;9.82;100.00;96298.09;5000890;28;20042;-74
2023/02/18 01:31:27;;;;;;;7.65;3.80;;;;;;;9.73;100.00;96305.63;5006117;28;20509;-74
2023/02/18 01:33:53;;;;;;;8.48;3.72;;;;;;;9.70;100.00;96300.84;5009722;28;20046;-74
2023/02/18 01:36:18;;;;;;;11.35;3.78;;;;;;;9.67;100.00;96301.34;5010909;28;20038;-74
2023/02/18 01:38:44;;;;;;;9.13;3.25;;;;;;;9.75;100.00;96303.53;5011156;28;20045;-74
2023/02/18 01:41:10;;;;;;;8.93;3.33;;;;;;;9.74;100.00;96301.16;5004346;28;20050;-74
2023/02/18 01:43:36;;;;;;;12.25;4.03;;;;;;;9.68;100.00;96298.47;5010744;28;20053;-74
2023/02/18 01:46:12;;;;;;;7.75;3.83;;;;;;;9.65;100.00;96298.16;5011054;28;20066;-74
2023/02/18 01:48:50;;;;;;;9.65;4.03;;;;;;;9.67;100.00;96301.34;5010395;28;20054;-74
2023/02/18 01:51:30;;;;;;;7.88;3.65;;;;;;;9.58;100.00;96308.03;5004401;28;20037;-74
2023/02/18 01:53:59;;;;;;;10.02;3.67;;;;;;;9.64;100.00;96307.06;5008592;28;20042;-74
2023/02/18 01:57:14;;;;;;;8.52;3.65;;;;;;;9.75;100.00;96303.53;5009614;28;20493;-74
2023/02/18 01:59:50;;;;;;;9.53;3.60;;;;;;;9.70;100.00;96300.84;4991365;28;20575;-74
2023/02/18 02:02:19;;;;;;;9.20;3.65;;;;;;;9.79;100.00;96296.75;5004012;28;20042;-74
2023/02/18 02:04:46;;;;;;;7.80;3.60;;;;;;;9.76;100.00;96294.63;5009227;28;20042;-74
2023/02/18 02:07:12;;;;;;;6.50;3.72;;;;;;;9.77;100.00;96290.94;5009254;28;20042;-74
2023/02/18 02:09:39;;;;;;;7.57;3.70;;;;;;;9.75;100.00;96298.28;5011391;28;20623;-74
2023/02/18 02:12:31;;;;;;;10.20;3.72;;;;;;;9.85;100.00;96298.38;5008480;28;20045;-74
2023/02/18 02:15:15;;;;;;;7.97;3.90;;;;;;;9.81;100.00;96301.75;5002810;28;20065;-74
2023/02/18 02:17:44;;;;;;;6.87;3.70;;;;;;;9.83;100.00;96295.22;5009875;28;20041;-74
2023/02/18 02:20:42;;;;;;;8.27;3.67;;;;;;;9.82;100.00;96292.84;5006308;28;20041;-74
2023/02/18 02:23:46;;;;;;;6.65;3.60;;;;;;;9.90;100.00;96289.78;5008685;28;20049;-74
2023/02/18 02:26:41;;;;;;;6.80;3.50;;;;;;;9.89;100.00;96277.69;5010154;28;20049;-74
2023/02/18 02:29:25;;;;;;;6.22;3.53;;;;;;;9.92;100.00;96281.66;5008396;28;20052;-74
2023/02/18 02:32:19;;;;;;;7.10;3.30;;;;;;;9.93;100.00;96283.22;5008250;28;20038;-74
2023/02/18 02:34:54;;;;;;;7.95;3.53;;;;;;;9.97;100.00;96289.59;5010056;28;20037;-74
2023/02/18 02:37:36;;;;;;;7.97;3.42;;;;;;;10.04;100.00;96291.00;5008716;28;20034;-74
2023/02/18 02:40:12;;;;;;;5.53;2.90;;;;;;;10.02;100.00;96281.75;5006791;28;20421;-74
2023/02/18 02:43:03;;;;;;;5.50;2.53;;;;;;;10.07;100.00;96284.47;5002342;28;20174;-75
2023/02/18 02:45:38;;;;;;;7.85;2.95;;;;;;;10.13;100.00;96286.09;5006513;28;20041;-72
2023/02/18 02:48:22;;;;;;;;;;;;;;;10.15;100.00;96276.13;5010707;28;20056;-72
2023/02/18 02:51:14;;;;;;;5.45;2.80;;;;;;;10.10;100.00;96272.63;5008483;28;19925;-75
2023/02/18 02:53:41;;;;;;;5.40;2.72;;;;;;;10.01;100.00;96270.47;5009117;28;20048;-74
2023/02/18 02:56:15;;;;;;;6.30;2.85;;;;;;;10.13;100.00;96267.69;5008818;28;20053;-74
2023/02/18 02:58:42;;;;;;;8.00;3.00;;;;;;;10.07;100.00;96268.69;5008934;28;20042;-74
2023/02/18 03:01:32;;;;;;;7.72;3.00;;;;;;;10.06;100.00;96267.09;5007698;28;20053;-74
2023/02/18 03:04:25;;;;;;;7.25;2.90;;;;;;;10.11;100.00;96264.50;5005104;28;20056;-74
2023/02/18 03:06:57;;;;;;;5.78;2.60;;;;;;;10.08;100.00;96258.94;5008704;28;20053;-74
2023/02/18 03:09:51;;;;;;;6.57;2.90;;;;;;;10.07;100.00;96258.16;5008821;28;20038;-74
2023/02/18 03:12:29;;;;;;;7.55;2.78;;;;;;;10.08;100.00;96262.34;5009165;28;20058;-74
2023/02/18 03:15:04;;;;;;;5.35;2.75;;;;;;;10.06;100.00;96246.03;5010299;28;20418;-74
2023/02/18 03:17:35;;;;;;;5.32;2.70;;;;;;;10.08;100.00;96249.22;5009985;28;20054;-74
2023/02/18 03:20:12;;;;;;;5.97;2.80;;;;;;;10.07;100.00;96247.66;5002740;28;20042;-74
2023/02/18 03:22:46;;;;;;;5.38;2.65;;;;;;;10.06;100.00;96246.03;5006681;28;20050;-74
2023/02/18 03:25:13;;;;;;;5.80;2.90;;;;;;;10.02;100.00;96258.09;5009791;28;20050;-74
2023/02/18 03:27:42;;;;;;;8.40;2.80;;;;;;;10.03;100.00;96257.84;5006338;28;20080;-74
2023/02/18 03:30:14;;;;;;;6.63;2.85;;;;;;;10.08;100.00;96249.22;5009147;28;20068;-74
2023/02/18 03:32:39;;;;;;;6.25;2.80;;;;;;;10.19;100.00;96255.38;5003663;28;20039;-74
2023/02/18 03:35:10;;;;;;;6.20;2.80;;;;;;;10.10;100.00;96257.66;5008818;28;20068;-74
2023/02/18 03:37:42;;;;;;;6.95;2.70;;;;;;;10.05;100.00;96260.22;5009179;28;20037;-74
2023/02/18 03:40:10;;;;;;;6.53;2.60;;;;;;;10.09;100.00;96256.06;4999359;28;20509;-74
2023/02/18 03:42:36;;;;;;;5.82;2.45;;;;;;;10.01;100.00;96259.13;5006334;28;20600;-74
2023/02/18 03:45:02;;;;;;;9.75;2.95;;;;;;;10.01;100.00;96253.88;5009007;28;20050;-74
2023/02/18 03:47:28;;;;;;;7.97;3.10;;;;;;;10.04;100.00;96258.63;5009413;28;20501;-74
2023/02/18 03:49:53;;;;;;;6.28;3.15;;;;;;;10.01;100.00;96253.88;5006648;28;20038;-74
2023/02/18 03:52:19;;;;;;;8.30;2.95;;;;;;;10.00;100.00;96252.31;5007570;28;20042;-73
2023/02/18 03:54:44;;;;;;;6.50;3.03;;;;;;;10.00;100.00;96252.31;5008897;28;20057;-74
2023/02/18 03:57:10;;;;;;;7.53;3.33;;;;;;;10.05;100.00;96249.72;5007092;28;20120;-74
2023/02/18 03:59:35;;;;;;;8.25;3.13;;;;;;;10.02;100.00;96252.84;5003805;28;20505;-74
2023/02/18 04:02:01;;;;;;;8.02;3.10;;;;;;;9.98;100.00;96243.84;5010678;28;20103;-74
2023/02/18 04:04:28;;;;;;;7.90;3.30;;;;;;;10.02;100.00;96252.84;5008240;28;20045;-74
2023/02/18 04:06:54;;;;;;;7.55;3.13;;;;;;;9.93;100.00;96246.41;5012503;28;20497;-74
2023/02/18 04:09:19;;;;;;;6.82;3.22;;;;;;;9.94;100.00;96253.28;5012218;28;20038;-74
2023/02/18 04:11:45;;;;;;;7.15;3.50;;;;;;;9.88;100.00;96250.59;5010499;28;20116;-74
2023/02/18 04:14:13;;;;;;;7.95;3.65;;;;;;;9.91;100.00;96244.03;5006960;28;20497;-74
2023/02/18 04:16:38;;;;;;;7.38;3.17;;;;;;;9.88;100.00;96245.34;5014070;28;20053;-74
2023/02/18 04:19:04;;;;;;;9.10;3.42;;;;;;;9.85;100.00;96251.06;5012967;28;20042;-74
2023/02/18 04:21:30;;;;;;;8.07;3.50;;;;;;;9.81;100.00;96243.94;5011961;28;20042;-74
2023/02/18 04:23:55;;;;;;;7.28;3.75;;;;;;;9.82;100.00;96240.25;5011377;28;20045;-74
2023/02/18 04:26:21;;;;;;;7.93;3.83;;;;;;;9.82;100.00;96251.56;5013554;28;20046;-74
2023/02/18 04:28:47;;;;;;;9.55;3.42;;;;;;;9.80;100.00;96240.50;5012050;28;20038;-74
2023/02/18 04:31:12;;;;;;;5.82;3.10;;;;;;;9.88;100.00;96241.91;5006809;28;20139;-75
2023/02/18 04:33:38;;;;;;;7.40;3.70;;;;;;;9.83;100.00;96242.66;5009318;28;20037;-74
2023/02/18 04:36:04;;;;;;;8.05;3.50;;;;;;;9.78;100.00;96229.44;5013360;28;20041;-74
2023/02/18 04:38:29;;;;;;;6.70;3.30;;;;;;;9.76;100.00;96236.78;5011986;28;20034;-74
2023/02/18 04:40:55;;;;;;;7.55;3.75;;;;;;;9.82;100.00;96256.81;5011744;28;20577;-74
2023/02/18 04:43:20;;;;;;;6.55;3.03;;;;;;;9.70;100.00;96243.03;5007022;28;20053;-74
2023/02/18 04:45:46;;;;;;;11.00;3.30;;;;;;;9.77;100.00;96248.91;5011834;28;20468;-74
2023/02/18 04:48:11;;;;;;;8.02;3.20;;;;;;;9.75;100.00;96256.22;5012227;28;20469;-74
2023/02/18 04:50:37;;;;;;;5.65;3.03;;;;;;;9.75;100.00;96250.97;5008358;28;20160;-74
2023/02/18 04:53:02;;;;;;;9.63;3.08;;;;;;;9.74;100.00;96254.66;5006771;28;20068;-74
2023/02/18 04:55:28;;;;;;;5.90;2.80;;;;;;;9.76;100.00;96241.25;5011924;28;20468;-74
2023/02/18 04:57:53;;;;;;;6.80;3.25;;;;;;;9.75;100.00;96255.44;5012763;28;20041;-74
2023/02/18 05:00:19;;;;;;;6.97;3.08;;;;;;;9.67;100.00;96254.03;5011316;28;20042;-74
2023/02/18 05:02:45;;;;;;;8.07;3.15;;;;;;;9.68;100.00;96255.59;4999620;28;20085;-74
2023/02/18 05:05:12;;;;;;;9.02;3.40;;;;;;;9.66;100.00;96260.31;5010680;28;20172;-74
2023/02/18 05:07:39;;;;;;;5.05;2.90;;;;;;;9.72;100.00;96254.09;5012529;28;20124;-74
2023/02/18 05:10:05;;;;;;;6.25;2.80;;;;;;;9.71;100.00;96255.09;5011052;28;20053;-74
2023/02/18 05:12:30;;;;;;;6.25;2.95;;;;;;;9.75;100.00;96256.22;5007857;28;20068;-74
2023/02/18 05:14:56;;;;;;;5.40;2.90;;;;;;;9.74;100.00;96246.75;5011259;28;20041;-74
2023/02/18 05:17:21;;;;;;;6.18;2.60;;;;;;;9.74;100.00;96252.03;5011470;28;20042;-74
2023/02/18 05:19:47;;;;;;;5.88;2.90;;;;;;;9.76;100.00;96242.03;5011806;28;20465;-74
2023/02/18 05:22:13;;;;;;;6.90;2.80;;;;;;;9.70;100.00;96235.16;5006246;28;20077;-74
2023/02/18 05:24:38;;;;;;;5.88;2.35;;;;;;;9.74;100.00;96243.31;5011283;28;20045;-74
2023/02/18 05:27:04;;;;;;;6.90;2.35;;;;;;;9.78;100.00;96239.94;5011543;28;20038;-74
2023/02/18 05:29:29;;;;;;;5.07;2.28;;;;;;;9.74;100.00;96233.63;5008188;28;20046;-74
2023/02/18 05:31:55;;;;;;;4.28;2.00;;;;;;;9.76;100.00;96231.53;5009459;28;20034;-74
2023/02/18 05:34:20;;;;;;;4.97;2.13;;;;;;;9.71;100.00;96228.81;5005698;28;20052;-74
2023/02/18 05:36:46;;;;;;;4.85;2.65;;;;;;;9.73;100.00;96226.78;5009899;28;20474;-74
2023/02/18 05:39:12;;;;;;;4.97;2.00;;;;;;;9.74;100.00;96233.63;5011500;28;20592;-74
2023/02/18 05:41:37;;;;;;;3.88;1.63;;;;;;;9.80;100.00;96245.78;5003143;28;20100;-74
2023/02/18 05:46:47;;;;;;;6.27;2.00;;;;;;;9.85;100.00;96245.81;5010937;28;20506;-74
2023/02/18 05:49:12;;;;;;;4.15;1.70;;;;;;;9.81;100.00;96228.97;5011950;28;20323;-74
2023/02/18 05:51:38;;;;;;;2.67;1.48;;;;;;;9.83;100.00;96232.13;5009979;28;20425;-74
2023/02/18 05:54:04;;;;;;;2.95;1.67;;;;;;;9.87;100.00;96238.50;5009333;28;20520;-74
2023/02/18 05:56:29;;;;;;;5.32;1.88;;;;;;;9.85;100.00;96232.66;5009857;28;20053;-74
2023/02/18 05:58:55;;;;;;;3.47;1.80;;;;;;;9.83;100.00;96239.22;5004328;28;20061;-74
2023/02/18 06:01:20;;;;;;;4.93;2.28;;;;;;;9.81;100.00;96238.66;5008716;28;20045;-74
2023/02/18 06:03:46;;;;;;;2.53;1.60;;;;;;;9.79;100.00;96235.50;5010389;28;20049;-74
2023/02/18 06:06:11;;;;;;;5.00;1.92;;;;;;;9.76;100.00;96230.75;5008684;28;20045;-74
2023/02/18 06:08:37;;;;;;;4.15;1.85;;;;;;;9.81;100.00;96228.97;5011595;28;20046;-75
2023/02/18 06:11:03;;;;;;;4.85;2.10;;;;;;;9.78;100.00;96234.69;5007845;28;20042;-74
2023/02/18 06:13:29;;;;;;;3.72;1.83;;;;;;;9.81;100.00;96239.47;5010149;28;20417;-74
2023/02/18 06:15:54;;;;;;;3.08;1.65;;;;;;;9.85;100.00;96251.06;5010094;28;20042;-74
2023/02/18 06:18:20;;;;;;;3.58;1.80;;;;;;;9.84;100.00;96236.34;5011367;28;20052;-74
2023/02/18 06:20:47;;;;;;;4.18;1.80;;;;;;;9.80;100.00;96234.47;5010287;28;20042;-74
2023/02/18 06:23:13;;;;;;;2.92;1.63;;;;;;;9.79;100.00;96257.31;5008304;28;20053;-74
2023/02/18 06:25:40;;;;;;;2.75;1.77;;;;;;;9.81;100.00;96247.38;5010082;28;20080;-74
2023/02/18 06:28:05;;;;;;;3.30;1.80;;;;;;;9.82;100.00;96246.31;5009162;28;20045;-74
2023/02/18 06:30:31;;;;;;;3.80;2.20;;;;;;;9.78;100.00;96250.47;5007490;28;20069;-74
2023/02/18 06:32:56;;;;;;;3.45;2.00;;;;;;;9.77;100.00;96259.41;5006356;28;20111;-74
2023/02/18 06:35:22;;;;;;;3.42;1.95;;;;;;;9.83;100.00;96255.78;5010918;28;20577;-73
2023/02/18 06:37:48;;;;;;;4.03;1.80;;;;;;;9.87;100.00;96259.53;5009878;28;20053;-74
2023/02/18 06:40:13;;;;;;;2.80;1.50;;;;;;;9.83;100.00;96253.16;5005942;28;20042;-74
2023/02/18 06:42:39;;;;;;;3.45;1.60;;;;;;;9.86;100.00;96255.28;5007865;28;20709;-74
2023/02/18 06:45:05;;;;;;;3.58;1.70;;;;;;;9.98;100.00;96243.84;5010080;28;20050;-74
2023/02/18 06:47:32;;;;;;;3.70;1.80;;;;;;;9.93;100.00;96246.41;5009007;28;20042;-73
2023/02/18 06:49:57;;;;;;;5.75;1.92;;;;;;;9.99;100.00;96253.34;5005023;28;20073;-74
2023/02/18 06:52:23;;;;;;;5.10;1.80;;;;;;;9.98;100.00;96255.16;5009180;28;20406;-73
2023/02/18 06:54:48;;;;;;;4.63;1.58;;;;;;;9.97;100.00;96242.25;5009163;28;20049;-74
2023/02/18 06:57:14;;;;;;;2.63;1.60;;;;;;;10.01;100.00;96243.34;5008104;28;21728;-75
2023/02/18 06:59:39;;;;;;;3.88;1.45;;;;;;;10.01;100.00;96245.97;5008926;28;20042;-74
2023/02/18 07:02:05;;;;;;;2.88;1.33;;;;;;;10.02;100.00;96240.47;5010947;28;20042;-74
2023/02/18 07:04:31;;;;;;;2.72;1.35;;;;;;;10.00;100.00;96236.53;5007541;28;20046;-75
2023/02/18 07:06:56;;;;;;;2.58;1.70;;;;;;;10.07;100.00;96237.13;5009166;28;20140;-74
2023/02/18 07:09:22;;;;;;;2.10;1.40;;;;;;;10.10;100.00;96249.78;5009291;28;20038;-74
2023/02/18 07:11:47;;;;;;;5.80;1.50;;;;;;;10.13;100.00;96236.13;5009932;28;20073;-72
2023/02/18 07:14:13;;;;;;;2.28;1.42;;;;;;;10.21;100.00;96233.06;5027497;28;20060;-76
2023/02/18 07:16:38;;;;;;;2.25;1.50;;;;;;;10.15;100.00;96227.97;5033996;28;20025;-74
2023/02/18 07:19:04;;;;;;;1.70;1.27;;;;;;;10.19;100.00;96235.13;5028694;28;20033;-74
2023/02/18 07:21:29;;;;;;;2.50;1.40;;;;;;;10.20;100.00;96239.34;5034825;28;20050;-73
2023/02/18 07:23:55;;;;;;;1.60;1.10;;;;;;;10.22;100.00;96229.34;5034806;28;20033;-76
2023/02/18 07:26:20;;;;;;;2.78;1.33;;;;;;;10.18;100.00;96241.41;5031505;28;20034;-72
2023/02/18 07:28:46;;;;;;;2.63;1.27;;;;;;;10.19;100.00;96256.16;5027297;28;20098;-72
2023/02/18 07:31:11;;;;;;;4.95;1.40;;;;;;;10.22;100.00;96239.88;5036673;28;20113;-72
2023/02/18 07:33:37;;;;;;;2.90;1.55;;;;;;;10.18;100.00;96244.03;5033023;28;20089;-73
2023/02/18 07:36:03;;;;;;;2.15;1.30;;;;;;;10.13;100.00;96251.91;5026272;28;20034;-72
2023/02/18 07:38:29;;;;;;;2.28;1.48;;;;;;;10.07;100.00;96250.28;5036247;28;20062;-73
2023/02/18 07:40:55;;;;;;;4.88;1.60;;;;;;;10.09;100.00;96240.28;5013524;28;20549;-74
2023/02/18 07:43:21;;;;;;;4.97;1.30;;;;;;;10.20;100.00;96241.97;5005102;28;20042;-75
2023/02/18 07:45:47;;;;;;;2.80;1.50;;;;;;;10.15;100.00;96255.06;5008830;28;20044;-75
2023/02/18 07:48:12;;;;;;;3.33;1.45;;;;;;;10.12;100.00;96245.03;5009326;28;20046;-73
2023/02/18 07:50:43;;;;;;;3.00;1.60;;;;;;;10.11;100.00;96238.19;5001101;28;20501;-74
2023/02/18 07:53:10;;;;;;;6.68;1.80;;;;;;;10.18;100.00;96227.47;5009566;28;20042;-74
2023/02/18 07:55:49;;;;;;;2.10;1.27;;;;;;;10.23;100.00;96236.22;5008478;28;20052;-73
2023/02/18 07:58:34;;;;;;;1.95;1.40;;;;;;;10.21;100.00;96248.03;5000135;28;20502;-73
2023/02/18 08:01:07;;;;;;;4.65;2.08;;;;;;;10.21;100.00;96227.78;5009302;28;20037;-74
2023/02/18 08:03:33;;;;;;;4.60;1.70;;;;;;;10.22;100.00;96245.16;5008469;28;20467;-73
2023/02/18 08:06:00;;;;;;;2.53;1.60;;;;;;;10.25;100.00;96243.06;5004208;28;20457;-72
2023/02/18 08:08:28;;;;;;;2.25;1.40;;;;;;;10.28;100.00;96232.06;5014488;28;20124;-72
2023/02/18 08:10:57;;;;;;;5.32;1.60;;;;;;;10.21;100.00;96232.25;5008532;28;20034;-71
2023/02/18 08:13:23;;;;;;;3.38;1.60;;;;;;;10.29;100.00;96213.38;5006658;28;20165;-75
2023/02/18 08:15:49;;;;;;;3.85;1.50;;;;;;;10.28;100.00;96211.00;5001708;28;20441;-73
2023/02/18 08:18:20;;;;;;;3.35;1.75;;;;;;;10.34;100.00;96210.03;5008480;28;20041;-72
2023/02/18 08:20:46;;;;;;;3.10;1.45;;;;;;;10.36;100.00;96202.69;5004839;28;20038;-73
2023/02/18 08:23:12;;;;;;;4.57;1.50;;;;;;;10.52;100.00;96196.50;5006631;28;20077;-72
2023/02/18 08:25:38;;;;;;;5.70;1.80;;;;;;;10.63;100.00;96212.38;5002283;28;20069;-72
2023/02/18 08:28:04;;;;;;;2.75;1.42;;;;;;;10.74;100.00;96208.75;5007389;28;20038;-72
2023/02/18 08:30:29;;;;;;;3.45;1.65;;;;;;;10.74;100.00;96214.81;5009470;28;20042;-72
2023/02/18 08:32:55;;;;;;;4.05;1.80;;;;;;;10.77;100.00;96187.19;5003826;28;20118;-72
2023/02/18 08:35:21;;;;;;;9.75;1.95;;;;;;;10.80;100.00;96170.09;5008578;28;20468;-72
2023/02/18 08:37:46;;;;;;;3.65;1.70;;;;;;;10.75;100.00;96189.28;5008402;28;20413;-73
2023/02/18 08:40:12;;;;;;;2.53;1.55;;;;;;;10.83;100.00;96175.66;5009697;28;20413;-72
2023/02/18 08:42:38;;;;;;;3.83;1.70;;;;;;;10.96;100.00;96178.88;5007381;28;20049;-72
2023/02/18 08:45:05;;;;;;;3.28;1.80;;;;;;;10.85;100.00;96168.28;5010002;28;20100;-72
2023/02/18 08:47:31;;;;;;;6.90;1.90;;;;;;;10.95;100.00;96172.03;5012211;28;20042;-72
2023/02/18 08:49:57;;;;;;;4.55;1.88;;;;;;;10.90;100.00;96165.69;5009974;28;20607;-72
2023/02/18 08:52:23;;;;;;;6.72;2.20;;;;;;;10.86;100.00;96159.34;5012960;28;20045;-72
2023/02/18 08:54:49;;;;;;;2.10;1.50;;;;;;;10.77;100.00;96176.66;5012714;28;20045;-73
2023/02/18 08:57:15;;;;;;;3.33;1.90;;;;;;;10.86;100.00;96177.78;5011991;28;20041;-72
2023/02/18 08:59:40;;;;;;;7.78;1.50;;;;;;;11.07;100.00;96197.09;5006085;28;20582;-73
2023/02/18 09:02:06;;;;;;;4.72;2.15;;;;;;;11.04;100.00;96191.56;5011636;28;20037;-72
2023/02/18 09:04:32;;;;;;;3.75;1.65;;;;;;;10.92;100.00;96184.66;5009272;28;20068;-72
2023/02/18 09:06:57;;;;;;;2.20;1.35;;;;;;;10.79;100.00;96169.31;5011036;28;20457;-73
2023/02/18 09:09:23;;;;;;;10.35;1.70;;;;;;;10.79;100.00;96158.78;5011519;28;20046;-73
2023/02/18 09:11:48;;;;;;;2.85;1.70;;;;;;;10.78;100.00;96177.47;5011477;28;20046;-72
2023/02/18 09:14:15;;;;;;;7.55;1.83;;;;;;;10.88;100.00;96178.31;5006060;28;20126;-72
2023/02/18 09:16:41;;;;;;;3.80;1.83;;;;;;;11.02;100.00;96172.59;5011588;28;20489;-72
2023/02/18 09:19:07;;;;;;;3.92;1.70;;;;;;;11.02;100.00;96175.22;5012538;28;20046;-73
2023/02/18 09:21:32;;;;;;;4.43;1.88;;;;;;;11.13;100.00;96170.81;5009156;28;20151;-73
2023/02/18 09:23:58;;;;;;;3.50;1.88;;;;;;;11.15;100.00;96176.59;5011623;28;20053;-72
2023/02/18 09:26:25;;;;;;;7.70;2.20;;;;;;;11.15;100.00;96177.41;5012378;28;20073;-73
2023/02/18 09:28:52;;;;;;;3.45;1.60;;;;;;;11.17;100.00;96169.25;5011303;28;20042;-72
2023/02/18 09:31:20;;;;;;;3.30;1.70;;;;;;;11.13;100.00;96173.44;5007067;28;20050;-73
2023/02/18 09:33:52;;;;;;;8.23;1.90;;;;;;;11.15;100.00;96177.41;5006664;28;20120;-72
2023/02/18 09:36:18;;;;;;;3.42;1.75;;;;;;;11.29;100.00;96176.94;5012594;28;20519;-72
2023/02/18 09:38:43;;;;;;;3.45;1.85;;;;;;;11.41;100.00;96167.00;5010432;28;20486;-73
2023/02/18 09:41:21;;;;;;;4.35;2.00;;;;;;;11.48;100.00;96167.53;5008337;28;20133;-72
2023/02/18 09:43:54;;;;;;;6.55;2.08;;;;;;;11.35;100.00;96149.56;5012041;28;20052;-73
2023/02/18 09:46:31;;;;;;;8.48;2.15;;;;;;;11.34;100.00;96147.97;5010932;28;20049;-73
2023/02/18 09:48:59;;;;;;;5.63;2.20;;;;;;;11.54;100.00;96153.31;5011369;28;20041;-73
2023/02/18 09:51:24;;;;;;;4.78;1.75;;;;;;;11.76;100.00;96139.13;5005836;28;20042;-73
2023/02/18 09:53:50;;;;;;;4.20;2.05;;;;;;;12.09;100.00;96122.03;5011640;28;20117;-73
2023/02/18 09:56:36;;;;;;;2.95;1.60;;;;;;;12.17;100.00;96122.56;5011779;28;20042;-73
2023/02/18 09:59:04;;;;;;;2.75;1.50;;;;;;;12.52;100.00;96119.13;5014059;28;20049;-74
2023/02/18 10:01:38;;;;;;;7.45;2.10;;;;;;;12.81;100.00;96121.19;5011576;28;20045;-74
2023/02/18 10:04:30;;;;;;;5.28;2.05;;;;;;;12.86;100.00;96113.25;5007868;28;20042;-74
2023/02/18 10:06:57;;;;;;;7.32;1.75;;;;;;;12.91;97.19;96105.28;5012292;28;20045;-74
2023/02/18 10:09:29;;;;;;;4.03;1.60;;;;;;;12.86;97.94;96112.44;5012030;28;20042;-74
2023/02/18 10:12:00;;;;;;;7.95;1.98;;;;;;;12.92;96.42;96101.59;5002871;28;20117;-74
2023/02/18 10:14:26;;;;;;;3.30;1.70;;;;;;;13.83;89.28;96098.00;5007545;28;20042;-74
2023/02/18 10:16:52;;;;;;;3.03;1.60;;;;;;;13.54;90.72;96088.13;5017416;28;20041;-75
2023/02/18 10:19:25;;;;;;;4.85;1.85;;;;;;;13.77;87.65;96093.81;5012904;28;20049;-74
2023/02/18 10:21:52;;;;;;;3.83;1.90;;;;;;;13.86;86.64;96081.56;5004503;28;20120;-74
2023/02/18 10:24:30;;;;;;;4.75;1.83;;;;;;;13.81;85.65;96078.97;5012234;28;20053;-74
2023/02/18 10:26:56;;;;;;;6.97;1.98;;;;;;;14.02;84.34;96075.13;5011751;28;20516;-73
2023/02/18 10:29:23;;;;;;;4.20;1.80;;;;;;;14.36;82.67;96068.97;5010083;28;20042;-73
2023/02/18 10:31:57;;;;;;;4.82;1.77;;;;;;;14.10;82.51;96070.28;5009103;28;20136;-74
2023/02/18 10:34:42;;;;;;;6.53;2.47;;;;;;;13.91;83.32;96060.38;5006761;28;20045;-74
2023/02/18 10:37:30;;;;;;;4.43;1.85;;;;;;;14.51;79.08;96060.13;5012573;28;20054;-74
2023/02/18 10:40:02;;;;;;;2.03;1.40;;;;;;;14.58;78.05;96049.16;5013374;28;20049;-73
2023/02/18 10:42:49;;;;;;;4.03;1.73;;;;;;;14.87;74.83;96066.91;5007186;28;20947;-73
2023/02/18 10:45:42;;;;;;;3.65;1.63;;;;;;;15.15;73.24;96057.28;5012071;28;20045;-71
2023/02/18 10:48:17;;;;;;;6.05;1.65;;;;;;;14.45;77.44;96049.84;5011982;28;20257;-73
2023/02/18 10:50:45;;;;;;;3.05;1.58;;;;;;;14.82;76.01;96028.00;5004813;28;20084;-73
2023/02/18 10:53:21;;;;;;;5.32;1.80;;;;;;;14.79;74.58;96027.78;5011170;28;20069;-73
2023/02/18 10:55:51;;;;;;;2.78;1.52;;;;;;;15.11;75.19;96028.97;5008746;28;20486;-73
2023/02/18 10:58:29;;;;;;;3.58;1.52;;;;;;;15.04;72.79;96024.03;5009779;28;20141;-71
2023/02/18 11:00:56;;;;;;;4.75;1.85;;;;;;;15.43;71.39;96015.03;5009799;28;20112;-71
2023/02/18 11:03:24;;;;;;;3.95;1.70;;;;;;;14.84;72.59;96020.56;5005247;28;20080;-73
2023/02/18 11:05:53;;;;;;;1.80;1.40;;;;;;;14.52;74.32;96003.44;5008212;28;20042;-75
2023/02/18 11:08:23;;;;;;;10.77;1.80;;;;;;;15.19;72.40;95999.19;5011828;28;20042;-74
2023/02/18 11:10:49;;;;;;;5.13;1.95;;;;;;;15.49;69.06;95990.00;5046188;22;20038;-69
2023/02/18 11:13:30;;;;;;;4.10;1.50;;;;;;;16.18;66.57;95986.00;5008457;28;20046;-72
2023/02/18 11:16:05;;;;;;;4.00;1.60;;;;;;;15.90;65.45;95991.22;4990530;28;20058;-72
2023/02/18 11:18:43;;;;;;;5.07;1.67;;;;;;;15.97;65.11;95973.06;4994772;28;20041;-74
2023/02/18 11:21:29;;;;;;;3.90;1.70;;;;;;;16.04;65.59;95970.81;4992653;28;20077;-73
2023/02/18 11:23:56;;;;;;;5.20;1.77;;;;;;;16.08;65.68;95955.88;4989624;28;20050;-74
2023/02/18 11:26:32;;;;;;;5.55;1.95;;;;;;;15.93;64.64;95958.78;4993692;28;20042;-75
2023/02/18 11:29:06;;;;;;;5.78;2.10;;;;;;;16.17;64.48;95971.13;4995549;28;20453;-75
2023/02/18 11:31:42;;;;;;;2.65;1.60;;;;;;;16.97;59.66;95974.38;4994028;28;20042;-76
2023/02/18 11:34:21;;;;;;;6.65;1.80;;;;;;;17.76;58.15;95959.81;5003837;28;20427;-75
2023/02/18 11:36:48;;;;;;;2.28;1.50;;;;;;;17.93;56.33;95967.13;4997789;28;20038;-75
2023/02/18 11:39:25;;;;;;;6.97;1.50;;;;;;;18.52;54.58;95950.91;4996429;28;20058;-74
2023/02/18 11:42:03;;;;;;;5.63;1.70;;;;;;;18.19;53.98;95950.50;4995483;28;20501;-73